createdAt,value
2018-01-16T00:00:34.583Z,0.00
2018-01-16T00:01:34.574Z,0.00
2018-01-16T00:02:34.597Z,0.00
2018-01-16T00:03:34.583Z,0.00
2018-01-16T00:04:34.601Z,0.00
2018-01-16T00:05:34.587Z,0.00
2018-01-16T00:06:34.600Z,0.00
2018-01-16T00:07:34.594Z,0.00
2018-01-16T00:08:34.596Z,0.00
2018-01-16T00:09:35.640Z,0.00
2018-01-16T00:10:34.611Z,0.00
2018-01-16T00:11:34.612Z,0.00
2018-01-16T00:12:34.628Z,0.00
2018-01-16T00:13:34.619Z,0.00
2018-01-16T00:14:34.621Z,0.00
2018-01-16T00:15:34.636Z,0.00
2018-01-16T00:16:34.644Z,0.00
2018-01-16T00:17:34.643Z,0.00
2018-01-16T00:18:34.643Z,0.00
2018-01-16T00:19:34.645Z,0.00
2018-01-16T00:20:34.676Z,0.00
2018-01-16T00:21:34.677Z,0.00
2018-01-16T00:22:34.666Z,0.00
2018-01-16T00:23:34.661Z,0.00
2018-01-16T00:24:34.684Z,0.00
2018-01-16T00:25:34.693Z,0.00
2018-01-16T00:26:34.674Z,0.00
2018-01-16T00:27:34.682Z,0.00
2018-01-16T00:28:34.686Z,0.00
2018-01-16T00:29:34.695Z,0.00
2018-01-16T00:30:34.684Z,0.00
2018-01-16T00:31:34.688Z,0.00
2018-01-16T00:32:34.698Z,0.00
2018-01-16T00:33:34.707Z,0.00
2018-01-16T00:34:34.775Z,0.00
2018-01-16T00:35:34.713Z,0.00
2018-01-16T00:36:34.801Z,0.00
2018-01-16T00:37:34.714Z,0.00
2018-01-16T00:38:34.808Z,0.00
2018-01-16T00:39:34.720Z,0.00
2018-01-16T00:40:34.837Z,0.00
2018-01-16T00:41:34.734Z,0.00
2018-01-16T00:42:34.732Z,0.00
2018-01-16T00:43:34.838Z,0.00
2018-01-16T00:44:34.738Z,0.00
2018-01-16T00:45:34.747Z,0.00
2018-01-16T00:46:34.739Z,0.00
2018-01-16T00:47:34.756Z,0.00
2018-01-16T00:48:34.763Z,0.00
2018-01-16T00:49:34.773Z,0.00
2018-01-16T00:50:34.764Z,0.00
2018-01-16T00:51:34.802Z,0.00
2018-01-16T00:52:34.765Z,0.00
2018-01-16T00:53:34.780Z,0.00
2018-01-16T00:54:34.829Z,0.00
2018-01-16T00:55:34.792Z,0.00
2018-01-16T00:56:34.782Z,0.00
2018-01-16T00:57:34.804Z,0.00
2018-01-16T00:58:34.797Z,0.00
2018-01-16T00:59:34.786Z,0.00
2018-01-16T01:00:34.807Z,0.00
2018-01-16T01:01:34.795Z,0.00
2018-01-16T01:02:34.882Z,0.00
2018-01-16T01:03:34.814Z,0.00
2018-01-16T01:04:34.958Z,0.00
2018-01-16T01:05:34.817Z,0.00
2018-01-16T01:06:34.840Z,0.00
2018-01-16T01:07:34.842Z,0.00
2018-01-16T01:08:34.839Z,0.00
2018-01-16T01:09:34.829Z,0.00
2018-01-16T01:10:34.849Z,0.00
2018-01-16T01:11:34.853Z,0.00
2018-01-16T01:12:34.849Z,0.00
2018-01-16T01:13:34.854Z,0.00
2018-01-16T01:14:34.842Z,0.00
2018-01-16T01:15:34.861Z,0.00
2018-01-16T01:16:34.877Z,0.00
2018-01-16T01:17:34.861Z,0.00
2018-01-16T01:18:34.874Z,0.00
2018-01-16T01:19:34.863Z,0.00
2018-01-16T01:20:34.894Z,0.00
2018-01-16T01:21:34.872Z,0.00
2018-01-16T01:22:34.876Z,0.00
2018-01-16T01:23:34.881Z,0.00
2018-01-16T01:24:34.919Z,0.00
2018-01-16T01:25:34.913Z,0.00
2018-01-16T01:26:34.889Z,0.00
2018-01-16T01:27:34.916Z,0.00
2018-01-16T01:28:34.901Z,0.00
2018-01-16T01:29:34.906Z,0.00
2018-01-16T01:30:34.926Z,0.00
2018-01-16T01:31:34.981Z,0.00
2018-01-16T01:32:34.919Z,0.00
2018-01-16T01:33:34.928Z,0.00
2018-01-16T01:34:34.933Z,0.00
2018-01-16T01:35:34.939Z,0.00
2018-01-16T01:36:34.932Z,0.00
2018-01-16T01:37:34.933Z,0.00
2018-01-16T01:38:34.933Z,0.00
2018-01-16T01:39:34.949Z,0.00
2018-01-16T01:40:34.941Z,0.00
2018-01-16T01:41:34.954Z,0.00
2018-01-16T01:42:34.955Z,0.00
2018-01-16T01:43:34.961Z,0.00
2018-01-16T01:44:34.961Z,0.00
2018-01-16T01:45:34.966Z,0.00
2018-01-16T01:46:34.966Z,0.00
2018-01-16T01:47:34.967Z,0.00
2018-01-16T01:48:34.981Z,0.00
2018-01-16T01:49:34.986Z,0.00
2018-01-16T01:50:34.988Z,0.00
2018-01-16T01:51:34.998Z,0.00
2018-01-16T01:52:35.006Z,0.00
2018-01-16T01:53:34.990Z,0.00
2018-01-16T01:54:34.998Z,0.00
2018-01-16T01:55:35.003Z,0.00
2018-01-16T01:56:35.009Z,0.00
2018-01-16T01:57:35.015Z,0.00
2018-01-16T01:58:35.030Z,0.00
2018-01-16T01:59:35.026Z,0.00
2018-01-16T02:00:35.044Z,0.00
2018-01-16T02:01:35.022Z,0.00
2018-01-16T02:02:35.021Z,0.00
2018-01-16T02:03:35.063Z,0.00
2018-01-16T02:04:36.113Z,0.00
2018-01-16T02:05:35.051Z,0.00
2018-01-16T02:06:35.047Z,0.00
2018-01-16T02:07:35.110Z,0.00
2018-01-16T02:08:35.052Z,0.00
2018-01-16T02:09:35.056Z,0.00
2018-01-16T02:10:35.068Z,0.00
2018-01-16T02:11:35.070Z,0.00
2018-01-16T02:12:35.078Z,0.00
2018-01-16T02:13:35.081Z,0.00
2018-01-16T02:14:35.073Z,0.00
2018-01-16T02:15:35.072Z,0.00
2018-01-16T02:16:35.080Z,0.00
2018-01-16T02:17:35.087Z,0.00
2018-01-16T02:18:35.109Z,0.00
2018-01-16T02:19:35.120Z,0.00
2018-01-16T02:20:35.113Z,0.00
2018-01-16T02:21:35.112Z,0.00
2018-01-16T02:22:35.109Z,0.00
2018-01-16T02:23:35.127Z,0.00
2018-01-16T02:24:35.131Z,0.00
2018-01-16T02:25:35.118Z,0.00
2018-01-16T02:26:35.130Z,0.00
2018-01-16T02:27:35.114Z,0.00
2018-01-16T02:28:35.136Z,0.00
2018-01-16T02:29:35.144Z,0.00
2018-01-16T02:30:35.160Z,0.00
2018-01-16T02:31:35.141Z,0.00
2018-01-16T02:32:35.146Z,0.00
2018-01-16T02:33:35.143Z,0.00
2018-01-16T02:34:35.147Z,0.00
2018-01-16T02:35:35.157Z,0.00
2018-01-16T02:36:35.163Z,0.00
2018-01-16T02:37:35.167Z,0.00
2018-01-16T02:38:35.172Z,0.00
2018-01-16T02:39:35.213Z,0.00
2018-01-16T02:40:35.183Z,0.00
2018-01-16T02:41:35.181Z,0.00
2018-01-16T02:42:35.194Z,0.00
2018-01-16T02:43:35.186Z,0.00
2018-01-16T02:44:35.193Z,0.00
2018-01-16T02:45:35.197Z,0.00
2018-01-16T02:46:35.204Z,0.00
2018-01-16T02:47:35.206Z,0.00
2018-01-16T02:48:35.209Z,0.00
2018-01-16T02:49:35.208Z,0.00
2018-01-16T02:50:35.207Z,0.00
2018-01-16T02:51:35.226Z,0.00
2018-01-16T02:52:35.311Z,0.00
2018-01-16T02:53:35.242Z,0.00
2018-01-16T02:54:35.218Z,0.00
2018-01-16T02:55:35.239Z,0.00
2018-01-16T02:56:35.249Z,0.00
2018-01-16T02:57:35.250Z,0.00
2018-01-16T02:58:35.261Z,0.00
2018-01-16T02:59:35.237Z,0.00
2018-01-16T03:00:35.258Z,0.00
2018-01-16T03:01:35.258Z,0.00
2018-01-16T03:02:35.262Z,0.00
2018-01-16T03:03:35.259Z,0.00
2018-01-16T03:04:35.276Z,0.00
2018-01-16T03:05:35.281Z,0.00
2018-01-16T03:06:35.301Z,0.00
2018-01-16T03:07:35.271Z,0.00
2018-01-16T03:08:35.281Z,0.00
2018-01-16T03:09:35.292Z,0.00
2018-01-16T03:10:35.298Z,0.00
2018-01-16T03:11:35.311Z,0.00
2018-01-16T03:12:35.292Z,0.00
2018-01-16T03:13:35.299Z,0.00
2018-01-16T03:14:35.304Z,0.00
2018-01-16T03:15:35.312Z,0.00
2018-01-16T03:16:35.308Z,0.00
2018-01-16T03:17:35.307Z,0.00
2018-01-16T03:18:35.317Z,0.00
2018-01-16T03:19:35.314Z,0.00
2018-01-16T03:20:35.331Z,0.00
2018-01-16T03:21:35.335Z,0.00
2018-01-16T03:22:35.344Z,0.00
2018-01-16T03:23:35.329Z,0.00
2018-01-16T03:24:35.336Z,0.00
2018-01-16T03:25:35.353Z,0.00
2018-01-16T03:26:35.357Z,0.00
2018-01-16T03:27:35.362Z,0.00
2018-01-16T03:28:35.359Z,0.00
2018-01-16T03:29:35.350Z,0.00
2018-01-16T03:30:35.363Z,0.00
2018-01-16T03:31:35.377Z,0.00
2018-01-16T03:32:35.367Z,0.00
2018-01-16T03:33:35.375Z,0.00
2018-01-16T03:34:35.373Z,0.00
2018-01-16T03:35:35.386Z,0.00
2018-01-16T03:36:36.427Z,0.00
2018-01-16T03:37:35.382Z,0.00
2018-01-16T03:38:35.418Z,0.00
2018-01-16T03:39:35.401Z,0.00
2018-01-16T03:40:35.399Z,0.00
2018-01-16T03:41:35.459Z,0.00
2018-01-16T03:42:35.421Z,0.00
2018-01-16T03:43:35.418Z,0.00
2018-01-16T03:44:35.422Z,0.00
2018-01-16T03:45:35.414Z,0.00
2018-01-16T03:46:35.432Z,0.00
2018-01-16T03:47:35.420Z,0.00
2018-01-16T03:48:35.422Z,0.00
2018-01-16T03:49:35.427Z,0.00
2018-01-16T03:50:36.524Z,0.00
2018-01-16T03:51:35.441Z,0.00
2018-01-16T03:52:35.520Z,0.00
2018-01-16T03:53:35.447Z,0.00
2018-01-16T03:54:35.533Z,0.00
2018-01-16T03:55:35.458Z,0.00
2018-01-16T03:56:35.468Z,0.00
2018-01-16T03:57:35.457Z,0.00
2018-01-16T03:58:35.462Z,0.00
2018-01-16T03:59:35.468Z,0.00
2018-01-16T04:00:35.470Z,0.00
2018-01-16T04:01:35.476Z,0.00
2018-01-16T04:02:35.483Z,0.00
2018-01-16T04:03:35.482Z,0.00
2018-01-16T04:04:35.502Z,0.00
2018-01-16T04:05:35.482Z,0.00
2018-01-16T04:06:35.489Z,0.00
2018-01-16T04:07:35.497Z,0.00
2018-01-16T04:08:35.502Z,0.00
2018-01-16T04:09:35.514Z,0.00
2018-01-16T04:10:35.507Z,0.00
2018-01-16T04:11:35.512Z,0.00
2018-01-16T04:12:35.520Z,0.00
2018-01-16T04:13:35.532Z,0.00
2018-01-16T04:14:35.521Z,0.00
2018-01-16T04:15:35.528Z,0.00
2018-01-16T04:16:35.569Z,0.00
2018-01-16T04:17:35.526Z,0.00
2018-01-16T04:18:35.544Z,0.00
2018-01-16T04:19:35.549Z,0.00
2018-01-16T04:20:35.606Z,0.00
2018-01-16T04:21:35.562Z,0.00
2018-01-16T04:22:35.559Z,0.00
2018-01-16T04:23:35.554Z,0.00
2018-01-16T04:24:35.561Z,0.00
2018-01-16T04:25:35.566Z,0.00
2018-01-16T04:26:35.663Z,0.00
2018-01-16T04:27:35.579Z,0.00
2018-01-16T04:28:35.583Z,0.00
2018-01-16T04:29:35.585Z,0.00
2018-01-16T04:30:35.583Z,0.00
2018-01-16T04:31:35.593Z,0.00
2018-01-16T04:32:35.593Z,0.00
2018-01-16T04:33:35.602Z,0.00
2018-01-16T04:34:35.607Z,0.00
2018-01-16T04:35:35.698Z,0.00
2018-01-16T04:36:35.611Z,0.00
2018-01-16T04:37:35.757Z,0.00
2018-01-16T04:38:35.621Z,0.00
2018-01-16T04:39:35.619Z,0.00
2018-01-16T04:40:35.636Z,0.00
2018-01-16T04:41:35.624Z,0.00
2018-01-16T04:42:35.644Z,0.00
2018-01-16T04:43:35.629Z,0.00
2018-01-16T04:44:35.669Z,0.00
2018-01-16T04:45:35.639Z,0.00
2018-01-16T04:46:35.678Z,0.00
2018-01-16T04:47:35.650Z,0.00
2018-01-16T04:48:35.701Z,0.00
2018-01-16T04:49:35.654Z,0.00
2018-01-16T04:50:35.699Z,0.00
2018-01-16T04:51:35.682Z,0.00
2018-01-16T04:52:35.667Z,0.00
2018-01-16T04:53:35.669Z,0.00
2018-01-16T04:54:35.690Z,0.00
2018-01-16T04:55:35.682Z,0.00
2018-01-16T04:56:35.702Z,0.00
2018-01-16T04:57:35.707Z,0.00
2018-01-16T04:58:35.707Z,0.00
2018-01-16T04:59:35.711Z,0.00
2018-01-16T05:00:35.698Z,0.00
2018-01-16T05:01:35.702Z,0.00
2018-01-16T05:02:35.706Z,0.00
2018-01-16T05:03:35.710Z,0.00
2018-01-16T05:04:35.729Z,0.00
2018-01-16T05:05:35.805Z,0.00
2018-01-16T05:06:35.712Z,0.00
2018-01-16T05:07:35.744Z,0.00
2018-01-16T05:08:35.726Z,0.00
2018-01-16T05:09:35.735Z,0.00
2018-01-16T05:10:35.732Z,0.00
2018-01-16T05:11:35.735Z,0.00
2018-01-16T05:12:35.751Z,0.00
2018-01-16T05:13:35.751Z,0.00
2018-01-16T05:14:35.744Z,0.00
2018-01-16T05:15:35.765Z,0.00
2018-01-16T05:16:35.758Z,0.00
2018-01-16T05:17:35.766Z,0.00
2018-01-16T05:18:35.764Z,0.00
2018-01-16T05:19:35.803Z,0.00
2018-01-16T05:20:35.797Z,0.00
2018-01-16T05:21:35.811Z,0.00
2018-01-16T05:22:35.788Z,0.00
2018-01-16T05:23:35.826Z,0.00
2018-01-16T05:24:35.804Z,0.00
2018-01-16T05:25:35.793Z,0.00
2018-01-16T05:26:35.849Z,0.00
2018-01-16T05:27:35.810Z,0.00
2018-01-16T05:28:35.862Z,0.00
2018-01-16T05:29:35.819Z,0.00
2018-01-16T05:30:35.884Z,0.00
2018-01-16T05:31:35.811Z,0.00
2018-01-16T05:32:35.883Z,0.00
2018-01-16T05:33:35.848Z,0.00
2018-01-16T05:34:35.838Z,0.00
2018-01-16T05:35:35.908Z,0.00
2018-01-16T05:36:35.835Z,0.00
2018-01-16T05:37:35.919Z,0.00
2018-01-16T05:38:35.843Z,0.00
2018-01-16T05:39:35.932Z,0.00
2018-01-16T05:40:35.859Z,0.00
2018-01-16T05:41:35.952Z,0.00
2018-01-16T05:42:35.872Z,0.00
2018-01-16T05:43:35.958Z,0.00
2018-01-16T05:44:35.871Z,0.00
2018-01-16T05:45:35.858Z,0.00
2018-01-16T05:46:35.859Z,0.00
2018-01-16T05:47:35.872Z,0.00
2018-01-16T05:48:35.880Z,0.00
2018-01-16T05:49:35.885Z,0.00
2018-01-16T05:50:35.899Z,0.00
2018-01-16T05:51:35.928Z,0.00
2018-01-16T05:52:35.892Z,0.00
2018-01-16T05:53:35.889Z,0.00
2018-01-16T05:54:35.901Z,0.00
2018-01-16T05:55:36.966Z,0.00
2018-01-16T05:56:35.920Z,0.00
2018-01-16T05:57:35.919Z,0.00
2018-01-16T05:58:35.920Z,0.00
2018-01-16T05:59:35.925Z,0.00
2018-01-16T06:00:35.924Z,0.00
2018-01-16T06:01:35.940Z,0.00
2018-01-16T06:02:35.926Z,0.00
2018-01-16T06:03:35.934Z,0.00
2018-01-16T06:04:35.973Z,0.00
2018-01-16T06:05:35.942Z,0.00
2018-01-16T06:06:35.961Z,0.00
2018-01-16T06:07:35.944Z,0.00
2018-01-16T06:08:35.957Z,0.00
2018-01-16T06:09:36.038Z,0.00
2018-01-16T06:10:35.972Z,0.00
2018-01-16T06:11:35.982Z,0.00
2018-01-16T06:12:36.097Z,0.00
2018-01-16T06:13:35.975Z,0.00
2018-01-16T06:14:36.084Z,0.00
2018-01-16T06:15:35.975Z,0.00
2018-01-16T06:16:35.988Z,0.00
2018-01-16T06:17:36.111Z,0.00
2018-01-16T06:18:35.995Z,0.00
2018-01-16T06:19:36.009Z,0.00
2018-01-16T06:20:35.987Z,0.00
2018-01-16T06:21:36.000Z,0.00
2018-01-16T06:22:35.998Z,0.00
2018-01-16T06:23:36.029Z,0.00
2018-01-16T06:24:36.058Z,0.00
2018-01-16T06:25:36.018Z,0.00
2018-01-16T06:26:36.062Z,0.00
2018-01-16T06:27:36.020Z,0.00
2018-01-16T06:28:36.062Z,0.00
2018-01-16T06:29:36.028Z,0.00
2018-01-16T06:30:36.036Z,0.00
2018-01-16T06:31:36.087Z,0.00
2018-01-16T06:32:36.046Z,0.00
2018-01-16T06:33:36.104Z,0.00
2018-01-16T06:34:36.056Z,0.00
2018-01-16T06:35:36.050Z,0.00
2018-01-16T06:36:36.122Z,0.00
2018-01-16T06:37:36.061Z,0.00
2018-01-16T06:38:36.148Z,0.00
2018-01-16T06:39:36.071Z,0.00
2018-01-16T06:40:36.079Z,0.00
2018-01-16T06:41:36.083Z,0.00
2018-01-16T06:42:36.083Z,0.00
2018-01-16T06:43:36.074Z,0.00
2018-01-16T06:44:36.082Z,0.00
2018-01-16T06:45:36.188Z,0.00
2018-01-16T06:46:36.092Z,0.00
2018-01-16T06:47:36.100Z,0.00
2018-01-16T06:48:36.159Z,0.00
2018-01-16T06:49:36.096Z,0.00
2018-01-16T06:50:36.250Z,0.00
2018-01-16T06:51:36.111Z,0.00
2018-01-16T06:52:36.132Z,0.00
2018-01-16T06:53:36.117Z,0.00
2018-01-16T06:54:36.137Z,0.00
2018-01-16T06:55:36.141Z,0.00
2018-01-16T06:56:36.143Z,0.00
2018-01-16T06:57:36.179Z,0.00
2018-01-16T06:58:36.198Z,0.00
2018-01-16T06:59:36.188Z,0.00
2018-01-16T07:00:36.145Z,0.00
2018-01-16T07:01:36.141Z,0.00
2018-01-16T07:02:36.154Z,0.00
2018-01-16T07:03:36.154Z,0.00
2018-01-16T07:04:36.166Z,4.00
2018-01-16T07:05:36.169Z,0.00
2018-01-16T07:06:36.167Z,4.00
2018-01-16T07:07:36.156Z,4.00
2018-01-16T07:08:36.165Z,4.00
2018-01-16T07:09:36.175Z,4.00
2018-01-16T07:10:36.269Z,4.00
2018-01-16T07:11:36.184Z,4.00
2018-01-16T07:12:36.196Z,8.00
2018-01-16T07:13:36.197Z,4.00
2018-01-16T07:14:36.184Z,8.00
2018-01-16T07:15:36.188Z,8.00
2018-01-16T07:16:36.204Z,8.00
2018-01-16T07:17:36.330Z,12.00
2018-01-16T07:18:36.225Z,16.00
2018-01-16T07:19:36.303Z,12.00
2018-01-16T07:20:36.206Z,12.00
2018-01-16T07:21:36.221Z,20.00
2018-01-16T07:22:36.222Z,20.00
2018-01-16T07:23:36.234Z,28.00
2018-01-16T07:24:36.242Z,28.00
2018-01-16T07:25:36.233Z,40.00
2018-01-16T07:26:36.249Z,48.00
2018-01-16T07:27:36.250Z,52.00
2018-01-16T07:28:36.258Z,52.00
2018-01-16T07:29:36.265Z,60.00
2018-01-16T07:30:36.279Z,64.00
2018-01-16T07:31:36.252Z,72.00
2018-01-16T07:32:36.305Z,76.00
2018-01-16T07:33:36.277Z,76.00
2018-01-16T07:34:36.324Z,84.00
2018-01-16T07:35:36.268Z,88.00
2018-01-16T07:36:36.299Z,92.00
2018-01-16T07:37:36.299Z,104.00
2018-01-16T07:38:36.287Z,108.00
2018-01-16T07:39:36.352Z,116.00
2018-01-16T07:40:36.283Z,124.00
2018-01-16T07:41:36.362Z,132.00
2018-01-16T07:42:36.287Z,136.00
2018-01-16T07:43:36.293Z,144.00
2018-01-16T07:44:36.395Z,152.00
2018-01-16T07:45:36.298Z,160.00
2018-01-16T07:46:36.395Z,144.00
2018-01-16T07:47:36.311Z,148.00
2018-01-16T07:48:36.416Z,164.00
2018-01-16T07:49:36.320Z,180.00
2018-01-16T07:50:36.419Z,196.00
2018-01-16T07:51:36.333Z,212.00
2018-01-16T07:52:36.330Z,236.00
2018-01-16T07:53:36.338Z,260.00
2018-01-16T07:54:36.344Z,276.00
2018-01-16T07:55:36.350Z,288.00
2018-01-16T07:56:36.337Z,292.00
2018-01-16T07:57:36.343Z,300.00
2018-01-16T07:58:36.367Z,320.00
2018-01-16T07:59:36.355Z,344.00
2018-01-16T08:00:36.358Z,344.00
2018-01-16T08:01:36.386Z,320.00
2018-01-16T08:02:36.395Z,320.00
2018-01-16T08:03:36.398Z,348.00
2018-01-16T08:04:36.382Z,388.00
2018-01-16T08:05:36.412Z,396.00
2018-01-16T08:06:36.373Z,352.00
2018-01-16T08:07:36.428Z,332.00
2018-01-16T08:08:36.387Z,308.00
2018-01-16T08:09:36.449Z,252.00
2018-01-16T08:10:36.388Z,188.00
2018-01-16T08:11:37.487Z,120.00
2018-01-16T08:12:36.401Z,80.00
2018-01-16T08:13:37.503Z,48.00
2018-01-16T08:14:36.402Z,40.00
2018-01-16T08:15:36.488Z,40.00
2018-01-16T08:16:36.407Z,32.00
2018-01-16T08:17:36.502Z,36.00
2018-01-16T08:18:36.426Z,40.00
2018-01-16T08:19:36.535Z,44.00
2018-01-16T08:20:36.446Z,44.00
2018-01-16T08:21:36.531Z,52.00
2018-01-16T08:22:36.455Z,72.00
2018-01-16T08:23:36.439Z,76.00
2018-01-16T08:24:36.438Z,92.00
2018-01-16T08:25:36.443Z,100.00
2018-01-16T08:26:36.575Z,72.00
2018-01-16T08:27:36.501Z,72.00
2018-01-16T08:28:36.474Z,68.00
2018-01-16T08:29:36.515Z,68.00
2018-01-16T08:30:37.517Z,72.00
2018-01-16T08:31:36.465Z,72.00
2018-01-16T08:32:36.511Z,52.00
2018-01-16T08:33:36.506Z,48.00
2018-01-16T08:34:36.534Z,52.00
2018-01-16T08:35:36.508Z,56.00
2018-01-16T08:36:36.596Z,68.00
2018-01-16T08:37:36.495Z,60.00
2018-01-16T08:38:36.551Z,68.00
2018-01-16T08:39:36.540Z,88.00
2018-01-16T08:40:36.595Z,128.00
2018-01-16T08:41:36.510Z,148.00
2018-01-16T08:42:36.625Z,172.00
2018-01-16T08:43:36.536Z,212.00
2018-01-16T08:44:36.595Z,288.00
2018-01-16T08:45:36.521Z,392.00
2018-01-16T08:46:36.547Z,452.00
2018-01-16T08:47:36.637Z,396.00
2018-01-16T08:48:36.560Z,328.00
2018-01-16T08:49:36.624Z,348.00
2018-01-16T08:50:36.540Z,396.00
2018-01-16T08:51:36.632Z,476.00
2018-01-16T08:52:36.576Z,512.00
2018-01-16T08:53:36.542Z,548.00
2018-01-16T08:54:36.697Z,524.00
2018-01-16T08:55:36.557Z,464.00
2018-01-16T08:56:36.673Z,428.00
2018-01-16T08:57:36.578Z,400.00
2018-01-16T08:58:36.619Z,352.00
2018-01-16T08:59:36.578Z,300.00
2018-01-16T09:00:36.584Z,252.00
2018-01-16T09:01:36.596Z,212.00
2018-01-16T09:02:36.588Z,196.00
2018-01-16T09:03:36.595Z,228.00
2018-01-16T09:04:36.608Z,264.00
2018-01-16T09:05:36.593Z,312.00
2018-01-16T09:06:36.614Z,340.00
2018-01-16T09:07:36.619Z,264.00
2018-01-16T09:08:36.644Z,196.00
2018-01-16T09:09:36.621Z,160.00
2018-01-16T09:10:36.620Z,176.00
2018-01-16T09:11:36.618Z,164.00
2018-01-16T09:12:36.697Z,140.00
2018-01-16T09:13:36.645Z,112.00
2018-01-16T09:14:36.645Z,96.00
2018-01-16T09:15:36.643Z,76.00
2018-01-16T09:16:36.745Z,64.00
2018-01-16T09:17:36.654Z,60.00
2018-01-16T09:18:36.744Z,44.00
2018-01-16T09:19:36.653Z,36.00
2018-01-16T09:20:36.733Z,36.00
2018-01-16T09:21:36.661Z,36.00
2018-01-16T09:22:36.700Z,32.00
2018-01-16T09:23:36.652Z,28.00
2018-01-16T09:24:36.680Z,40.00
2018-01-16T09:25:36.670Z,48.00
2018-01-16T09:26:37.829Z,52.00
2018-01-16T09:27:36.721Z,40.00
2018-01-16T09:28:36.706Z,52.00
2018-01-16T09:29:38.811Z,60.00
2018-01-16T09:30:36.732Z,44.00
2018-01-16T09:31:41.444Z,52.00
2018-01-16T09:32:36.700Z,48.00
2018-01-16T09:33:36.711Z,56.00
2018-01-16T09:34:36.702Z,64.00
2018-01-16T09:35:36.721Z,72.00
2018-01-16T09:36:36.705Z,96.00
2018-01-16T09:37:36.811Z,124.00
2018-01-16T09:38:36.715Z,212.00
2018-01-16T09:39:37.819Z,336.00
2018-01-16T09:40:36.729Z,480.00
2018-01-16T09:41:36.799Z,520.00
2018-01-16T09:42:36.730Z,408.00
2018-01-16T09:43:36.831Z,336.00
2018-01-16T09:44:36.749Z,328.00
2018-01-16T09:45:36.853Z,264.00
2018-01-16T09:46:36.753Z,188.00
2018-01-16T09:47:37.793Z,172.00
2018-01-16T09:48:36.748Z,164.00
2018-01-16T09:49:36.772Z,156.00
2018-01-16T09:50:36.791Z,180.00
2018-01-16T09:51:37.851Z,180.00
2018-01-16T09:52:36.790Z,156.00
2018-01-16T09:53:36.925Z,136.00
2018-01-16T09:54:36.799Z,136.00
2018-01-16T09:55:38.799Z,128.00
2018-01-16T09:56:36.793Z,124.00
2018-01-16T09:57:48.503Z,136.00
2018-01-16T09:58:36.812Z,172.00
2018-01-16T09:59:36.861Z,216.00
2018-01-16T10:00:36.819Z,252.00
2018-01-16T10:01:36.847Z,264.00
2018-01-16T10:02:36.815Z,288.00
2018-01-16T10:03:36.918Z,328.00
2018-01-16T10:04:36.819Z,380.00
2018-01-16T10:05:38.919Z,412.00
2018-01-16T10:06:36.818Z,400.00
2018-01-16T10:07:36.833Z,424.00
2018-01-16T10:08:38.948Z,508.00
2018-01-16T10:09:36.861Z,576.00
2018-01-16T10:10:36.842Z,648.00
2018-01-16T10:11:36.833Z,716.00
2018-01-16T10:12:36.847Z,736.00
2018-01-16T10:13:38.008Z,756.00
2018-01-16T10:14:36.870Z,740.00
2018-01-16T10:15:36.937Z,736.00
2018-01-16T10:16:36.841Z,764.00
2018-01-16T10:17:37.875Z,764.00
2018-01-16T10:18:36.931Z,760.00
2018-01-16T10:19:41.543Z,788.00
2018-01-16T10:20:36.871Z,884.00
2018-01-16T10:21:36.983Z,1104.00
2018-01-16T10:22:36.886Z,1388.00
2018-01-16T10:23:37.913Z,1556.00
2018-01-16T10:24:36.897Z,1640.00
2018-01-16T10:25:41.518Z,1496.00
2018-01-16T10:26:36.908Z,1508.00
2018-01-16T10:27:37.955Z,1420.00
2018-01-16T10:28:36.895Z,1268.00
2018-01-16T10:29:37.963Z,1096.00
2018-01-16T10:30:36.901Z,1032.00
2018-01-16T10:31:37.966Z,904.00
2018-01-16T10:32:36.927Z,840.00
2018-01-16T10:33:36.976Z,768.00
2018-01-16T10:34:36.926Z,784.00
2018-01-16T10:35:37.027Z,716.00
2018-01-16T10:36:36.917Z,784.00
2018-01-16T10:37:37.027Z,788.00
2018-01-16T10:38:36.941Z,1020.00
2018-01-16T10:39:37.042Z,1208.00
2018-01-16T10:40:36.989Z,1356.00
2018-01-16T10:41:36.954Z,1272.00
2018-01-16T10:42:36.987Z,1592.00
2018-01-16T10:43:36.965Z,1736.00
2018-01-16T10:44:36.959Z,1948.00
2018-01-16T10:45:36.989Z,1684.00
2018-01-16T10:46:36.990Z,1676.00
2018-01-16T10:47:42.083Z,1520.00
2018-01-16T10:48:37.010Z,1528.00
2018-01-16T10:49:37.054Z,1568.00
2018-01-16T10:50:37.040Z,1572.00
2018-01-16T10:51:37.038Z,1568.00
2018-01-16T10:52:36.999Z,1660.00
2018-01-16T10:53:37.037Z,1648.00
2018-01-16T10:54:36.988Z,1728.00
2018-01-16T10:55:37.065Z,1648.00
2018-01-16T10:56:36.991Z,1484.00
2018-01-16T10:57:37.066Z,1348.00
2018-01-16T10:58:36.992Z,1236.00
2018-01-16T10:59:37.067Z,1168.00
2018-01-16T11:00:37.022Z,1112.00
2018-01-16T11:01:37.042Z,1068.00
2018-01-16T11:02:37.011Z,1012.00
2018-01-16T11:03:37.103Z,1052.00
2018-01-16T11:04:37.032Z,1012.00
2018-01-16T11:05:37.109Z,972.00
2018-01-16T11:06:37.045Z,1048.00
2018-01-16T11:07:37.126Z,1148.00
2018-01-16T11:08:37.032Z,1116.00
2018-01-16T11:09:37.137Z,1036.00
2018-01-16T11:10:37.065Z,848.00
2018-01-16T11:11:37.175Z,772.00
2018-01-16T11:12:37.082Z,800.00
2018-01-16T11:13:37.089Z,740.00
2018-01-16T11:14:37.216Z,760.00
2018-01-16T11:15:37.061Z,752.00
2018-01-16T11:16:37.079Z,844.00
2018-01-16T11:17:37.071Z,900.00
2018-01-16T11:18:37.106Z,956.00
2018-01-16T11:19:37.089Z,1012.00
2018-01-16T11:20:37.131Z,1028.00
2018-01-16T11:21:37.081Z,1072.00
2018-01-16T11:22:37.118Z,1060.00
2018-01-16T11:23:37.085Z,956.00
2018-01-16T11:24:37.133Z,936.00
2018-01-16T11:25:37.098Z,1048.00
2018-01-16T11:26:37.159Z,1024.00
2018-01-16T11:27:37.095Z,1088.00
2018-01-16T11:28:37.163Z,1224.00
2018-01-16T11:29:37.109Z,1092.00
2018-01-16T11:30:37.194Z,1040.00
2018-01-16T11:31:37.122Z,1028.00
2018-01-16T11:32:37.192Z,964.00
2018-01-16T11:33:37.125Z,1396.00
2018-01-16T11:34:37.203Z,1404.00
2018-01-16T11:35:37.155Z,1228.00
2018-01-16T11:36:37.224Z,1108.00
2018-01-16T11:37:37.137Z,1668.00
2018-01-16T11:38:37.236Z,1636.00
2018-01-16T11:39:37.148Z,1752.00
2018-01-16T11:40:37.251Z,1748.00
2018-01-16T11:41:37.156Z,1616.00
2018-01-16T11:42:37.265Z,1556.00
2018-01-16T11:43:37.174Z,1392.00
2018-01-16T11:44:37.274Z,1460.00
2018-01-16T11:45:37.184Z,1512.00
2018-01-16T11:46:37.289Z,1708.00
2018-01-16T11:47:37.181Z,1692.00
2018-01-16T11:48:38.088Z,1260.00
2018-01-16T11:49:37.183Z,1204.00
2018-01-16T11:50:37.228Z,1272.00
2018-01-16T11:51:37.200Z,1416.00
2018-01-16T11:52:37.225Z,1456.00
2018-01-16T11:53:37.201Z,1404.00
2018-01-16T11:54:37.246Z,1220.00
2018-01-16T11:55:37.205Z,1312.00
2018-01-16T11:56:37.244Z,1372.00
2018-01-16T11:57:37.228Z,1268.00
2018-01-16T11:58:37.269Z,1308.00
2018-01-16T11:59:37.215Z,1280.00
2018-01-16T12:00:37.222Z,1192.00
2018-01-16T12:01:37.224Z,1408.00
2018-01-16T12:02:37.246Z,1752.00
2018-01-16T12:03:37.230Z,1944.00
2018-01-16T12:04:37.333Z,1984.00
2018-01-16T12:05:37.241Z,1756.00
2018-01-16T12:06:37.347Z,1752.00
2018-01-16T12:07:37.249Z,1808.00
2018-01-16T12:08:37.342Z,1500.00
2018-01-16T12:09:37.266Z,1560.00
2018-01-16T12:10:37.364Z,1388.00
2018-01-16T12:11:37.308Z,1244.00
2018-01-16T12:12:37.373Z,1128.00
2018-01-16T12:13:37.299Z,1184.00
2018-01-16T12:14:37.390Z,1512.00
2018-01-16T12:15:37.271Z,1408.00
2018-01-16T12:16:37.394Z,1456.00
2018-01-16T12:17:37.302Z,1632.00
2018-01-16T12:18:37.429Z,1816.00
2018-01-16T12:19:37.299Z,1628.00
2018-01-16T12:20:37.317Z,1780.00
2018-01-16T12:21:37.311Z,2244.00
2018-01-16T12:22:37.366Z,2040.00
2018-01-16T12:23:37.314Z,1760.00
2018-01-16T12:24:37.351Z,1612.00
2018-01-16T12:25:37.322Z,1564.00
2018-01-16T12:26:37.355Z,1536.00
2018-01-16T12:27:37.349Z,1216.00
2018-01-16T12:28:37.325Z,1092.00
2018-01-16T12:29:37.390Z,1020.00
2018-01-16T12:30:37.338Z,964.00
2018-01-16T12:31:37.402Z,1176.00
2018-01-16T12:32:37.348Z,1064.00
2018-01-16T12:33:37.405Z,1300.00
2018-01-16T12:34:37.350Z,1352.00
2018-01-16T12:35:37.420Z,1440.00
2018-01-16T12:36:37.369Z,1340.00
2018-01-16T12:37:37.359Z,1228.00
2018-01-16T12:38:37.377Z,1324.00
2018-01-16T12:39:37.390Z,1352.00
2018-01-16T12:40:37.448Z,1276.00
2018-01-16T12:41:37.384Z,1232.00
2018-01-16T12:42:37.469Z,1220.00
2018-01-16T12:43:37.376Z,1216.00
2018-01-16T12:44:37.484Z,1248.00
2018-01-16T12:45:37.405Z,1188.00
2018-01-16T12:46:37.489Z,1048.00
2018-01-16T12:47:37.395Z,1236.00
2018-01-16T12:48:37.516Z,1236.00
2018-01-16T12:49:37.413Z,1132.00
2018-01-16T12:50:37.528Z,1264.00
2018-01-16T12:51:37.426Z,1252.00
2018-01-16T12:52:37.432Z,1200.00
2018-01-16T12:53:37.544Z,1224.00